Time;durP1;ratioP1;P1;durP2;ratioP2;P2;SDS_P1;SDS_P2;PMS_P1;PMS_P2;Temp;Humidity;BMP_temperature;BMP_pressure;BME280_temperature;BME280_humidity;BME280_pressure;Samples;Min_cycle;Max_cycle;Signal;HPM_P1;HPM_P2
2021/06/24 00:00:06;;;;;;;;;8.25;7.75;;;;;17.59;100.00;101897.41;4921928;28;46490;-66
2021/06/24 00:02:32;;;;;;;;;10.00;8.00;;;;;17.43;100.00;101866.13;4921810;28;45937;-66
2021/06/24 00:04:57;;;;;;;;;9.25;8.00;;;;;17.61;100.00;101893.84;4921713;28;45395;-67
2021/06/24 00:07:23;;;;;;;;;7.75;7.75;;;;;17.53;100.00;101885.25;4922005;28;45456;-65
2021/06/24 00:09:48;;;;;;;;;10.25;8.25;;;;;17.49;100.00;101874.81;4921365;28;46279;-67
2021/06/24 00:12:13;;;;;;;;;9.75;8.00;;;;;17.63;100.00;101896.44;4921668;28;45399;-66
2021/06/24 00:18:03;;;;;;;;;6.50;6.00;;;;;17.59;100.00;101895.66;4928746;28;45757;-66
2021/06/24 00:20:28;;;;;;;;;6.50;6.50;;;;;17.54;100.00;101883.47;4921354;28;46858;-66
2021/06/24 00:22:54;;;;;;;;;8.00;7.00;;;;;17.64;100.00;101901.66;4921491;28;45352;-67
2021/06/24 00:25:19;;;;;;;;;7.50;7.25;;;;;17.65;100.00;101915.75;4920534;28;45400;-66
2021/06/24 00:27:45;;;;;;;;;6.00;6.00;;;;;17.50;100.00;101893.25;4921782;28;45426;-67
2021/06/24 00:30:11;;;;;;;;;5.00;4.75;;;;;17.59;100.00;101906.22;4920785;28;46351;-66
2021/06/24 00:32:36;;;;;;;;;7.75;6.50;;;;;17.42;100.00;101871.41;4921530;28;45502;-67
2021/06/24 00:35:02;;;;;;;;;8.50;7.25;;;;;17.51;100.00;101886.19;4921540;28;45719;-66
2021/06/24 00:37:29;;;;;;;;;8.25;6.75;;;;;17.40;100.00;101870.59;4920098;28;45422;-66
2021/06/24 00:39:54;;;;;;;;;7.25;6.00;;;;;17.54;100.00;101896.66;4919648;28;48392;-67
2021/06/24 00:42:20;;;;;;;;;6.75;6.00;;;;;17.52;100.00;101893.22;4920921;28;45256;-67
2021/06/24 00:48:09;;;;;;;;;7.00;6.75;;;;;17.61;100.00;101900.88;4921412;28;45357;-66
2021/06/24 00:50:37;;;;;;;;;9.00;7.75;;;;;17.48;100.00;101884.50;4921136;28;46554;-67
2021/06/24 00:53:03;;;;;;;;;8.00;7.25;;;;;17.56;100.00;101902.78;4921058;28;45377;-66
2021/06/24 00:55:40;;;;;;;;;8.25;6.50;;;;;17.60;100.00;101907.06;4921319;28;45469;-66
2021/06/24 00:58:08;;;;;;;;;8.25;7.00;;;;;17.42;100.00;101874.06;4921033;28;45522;-66
2021/06/24 01:00:34;;;;;;;;;8.50;7.25;;;;;17.47;100.00;101880.13;4920529;28;46783;-66
2021/06/24 01:02:59;;;;;;;;;9.50;7.25;;;;;17.53;100.00;101890.53;4920755;28;45518;-65
2021/06/24 01:05:25;;;;;;;;;6.00;6.00;;;;;17.51;100.00;101884.41;4920820;28;45302;-66
2021/06/24 01:07:50;;;;;;;;;7.75;7.00;;;;;17.50;100.00;101879.19;4921223;28;45273;-66
2021/06/24 01:10:16;;;;;;;;;6.50;6.00;;;;;17.40;100.00;101867.94;4920945;28;45595;-66
2021/06/24 01:12:41;;;;;;;;;7.00;7.00;;;;;17.35;100.00;101867.22;4920755;28;45419;-68
2021/06/24 01:18:28;;;;;;;;;10.00;7.00;;;;;17.46;100.00;101883.66;4923564;28;45441;-67
2021/06/24 01:20:54;;;;;;;;;6.75;6.00;;;;;17.45;100.00;101881.94;4920303;28;46379;-66
2021/06/24 01:23:19;;;;;;;;;6.50;6.50;;;;;17.44;100.00;101882.84;4920461;28;45329;-67
2021/06/24 01:25:45;;;;;;;;;7.00;6.00;;;;;17.37;100.00;101868.91;4920766;28;45404;-66
2021/06/24 01:28:11;;;;;;;;;9.25;6.75;;;;;17.42;100.00;101877.56;4920664;28;45314;-67
2021/06/24 01:30:39;;;;;;;;;8.50;7.00;;;;;17.44;100.00;101880.19;4920523;28;46587;-67
2021/06/24 01:33:06;;;;;;;;;8.25;7.50;;;;;17.39;100.00;101871.50;4920420;28;45355;-69
2021/06/24 01:35:32;;;;;;;;;7.00;7.00;;;;;17.43;100.00;101892.53;4920505;28;45335;-66
2021/06/24 01:38:08;;;;;;;;;6.25;6.00;;;;;17.43;100.00;101876.69;4920847;28;45393;-67
2021/06/24 01:40:34;;;;;;;;;8.00;7.00;;;;;17.43;100.00;101879.34;4919303;28;45321;-66
2021/06/24 01:43:00;;;;;;;;;5.50;5.50;;;;;17.39;100.00;101860.94;4920461;28;45602;-65
2021/06/24 01:48:47;;;;;;;;;7.00;7.00;;;;;17.41;100.00;101867.91;4920413;28;45523;-66
2021/06/24 01:51:13;;;;;;;;;6.75;6.50;;;;;17.26;100.00;101849.84;4920179;28;45573;-67
2021/06/24 01:53:38;;;;;;;;;9.75;8.75;;;;;17.34;100.00;101866.34;4920291;28;45313;-67
2021/06/24 01:56:04;;;;;;;;;6.25;6.25;;;;;17.32;100.00;101870.78;4920314;28;45547;-67
2021/06/24 01:58:30;;;;;;;;;7.00;6.00;;;;;17.14;100.00;101827.22;4920413;28;45403;-67
2021/06/24 02:00:58;;;;;;;;;7.75;6.50;;;;;17.35;100.00;101859.28;4919888;28;45475;-67
2021/06/24 02:03:25;;;;;;;;;9.00;7.25;;;;;17.36;100.00;101864.53;4919913;28;45675;-67
2021/06/24 02:05:56;;;;;;;;;6.00;6.00;;;;;17.34;100.00;101858.41;4920201;28;45463;-66
2021/06/24 02:08:26;;;;;;;;;7.00;6.75;;;;;17.37;100.00;101855.69;4920276;28;45444;-66
2021/06/24 02:10:56;;;;;;;;;7.00;7.00;;;;;17.19;100.00;101840.31;4919910;28;46265;-66
2021/06/24 02:13:23;;;;;;;;;7.00;6.50;;;;;17.06;100.00;101834.47;4918716;28;45558;-67
2021/06/24 02:19:10;;;;;;;;;8.25;7.50;;;;;17.07;100.00;101846.75;4923651;28;45596;-67
2021/06/24 02:21:35;;;;;;;;;7.25;7.25;;;;;16.98;100.00;101828.50;4919865;28;46481;-66
2021/06/24 02:24:01;;;;;;;;;9.00;6.00;;;;;17.01;100.00;101832.84;4919333;28;45327;-65
2021/06/24 02:26:26;;;;;;;;;9.00;6.25;;;;;16.96;100.00;101818.88;4918454;28;45349;-67
2021/06/24 02:28:51;;;;;;;;;6.00;6.00;;;;;17.05;100.00;101839.78;4919911;28;45429;-67
2021/06/24 02:31:17;;;;;;;;;8.00;7.00;;;;;16.89;100.00;101806.75;4919556;28;45158;-68
2021/06/24 02:33:43;;;;;;;;;8.00;7.00;;;;;17.05;100.00;101829.22;4919923;28;45338;-66
2021/06/24 02:36:09;;;;;;;;;7.75;7.25;;;;;16.87;100.00;101796.22;4919812;28;45537;-66
2021/06/24 02:38:34;;;;;;;;;5.75;5.00;;;;;16.99;100.00;101813.56;4919832;28;45501;-67
2021/06/24 02:41:00;;;;;;;;;8.00;8.00;;;;;16.97;100.00;101810.06;4919552;28;45609;-66
2021/06/24 02:43:25;;;;;;;;;7.75;6.00;;;;;16.88;100.00;101789.19;4917895;28;45637;-67
2021/06/24 02:49:12;;;;;;;;;6.75;6.50;;;;;16.98;100.00;101806.53;4919511;28;45341;-67
2021/06/24 02:51:38;;;;;;;;;6.00;5.50;;;;;17.04;100.00;101820.44;4919088;28;46379;-67
2021/06/24 02:54:04;;;;;;;;;6.50;6.50;;;;;17.06;100.00;101820.41;4919490;28;45676;-66
2021/06/24 02:56:33;;;;;;;;;7.00;6.00;;;;;17.05;100.00;101823.94;4919414;28;45316;-66
2021/06/24 02:58:58;;;;;;;;;6.25;6.25;;;;;16.93;100.00;101813.66;4918357;28;45580;-66
2021/06/24 03:01:24;;;;;;;;;7.00;5.75;;;;;16.96;100.00;101826.78;4919037;28;45294;-66
2021/06/24 03:03:49;;;;;;;;;6.00;5.75;;;;;16.84;100.00;101793.66;4919337;28;45287;-65
2021/06/24 03:06:14;;;;;;;;;7.50;7.00;;;;;16.79;100.00;101795.53;4917757;28;45408;-66
2021/06/24 03:08:40;;;;;;;;;8.75;8.00;;;;;17.01;100.00;101823.16;4919302;28;45461;-65
2021/06/24 03:11:05;;;;;;;;;6.25;5.50;;;;;16.92;100.00;101826.00;4919037;28;45354;-66
2021/06/24 03:13:31;;;;;;;;;7.50;6.50;;;;;16.88;100.00;101811.16;4919187;28;45203;-67
2021/06/24 03:19:19;;;;;;;;;7.25;6.50;;;;;16.86;100.00;101809.44;4919547;28;45330;-66
2021/06/24 03:21:44;;;;;;;;;9.50;7.75;;;;;16.93;100.00;101824.22;4919175;28;46414;-66
2021/06/24 03:24:10;;;;;;;;;8.75;5.25;;;;;16.91;100.00;101821.63;4918748;28;45352;-67
2021/06/24 03:26:36;;;;;;;;;7.75;6.75;;;;;16.96;100.00;101826.78;4919201;28;45296;-66
2021/06/24 03:29:03;;;;;;;;;6.75;5.75;;;;;16.86;100.00;101814.72;4919355;28;45316;-69
2021/06/24 03:31:29;;;;;;;;;8.00;7.00;;;;;16.88;100.00;101824.34;4918932;28;46399;-66
2021/06/24 03:33:54;;;;;;;;;6.00;6.00;;;;;16.89;100.00;101818.16;4919011;28;45467;-70
2021/06/24 03:36:20;;;;;;;;;6.75;6.75;;;;;16.98;100.00;101835.56;4919125;28;45391;-66
2021/06/24 03:38:46;;;;;;;;;7.25;7.25;;;;;16.84;100.00;101815.63;4919108;28;45360;-65
2021/06/24 03:41:14;;;;;;;;;6.50;6.50;;;;;16.94;100.00;101832.09;4918850;28;45414;-65
2021/06/24 03:43:40;;;;;;;;;7.25;7.00;;;;;16.88;100.00;101832.25;4918838;28;45357;-65
2021/06/24 03:49:27;;;;;;;;;8.00;6.75;;;;;16.72;100.00;101810.63;4918776;28;45383;-67
2021/06/24 03:51:52;;;;;;;;;6.75;6.00;;;;;16.70;100.00;101817.69;4918912;28;46738;-67
2021/06/24 03:54:18;;;;;;;;;7.75;6.00;;;;;16.58;100.00;101798.63;4918663;28;45383;-67
2021/06/24 03:56:43;;;;;;;;;8.00;7.00;;;;;16.62;100.00;101814.34;4918958;28;45311;-66
2021/06/24 03:59:09;;;;;;;;;6.50;6.50;;;;;16.70;100.00;101835.28;4919009;28;45417;-66
2021/06/24 04:01:42;;;;;;;;;6.75;6.75;;;;;16.49;100.00;101813.72;4917748;28;46088;-65
2021/06/24 04:04:07;;;;;;;;;6.00;6.00;;;;;16.46;100.00;101816.44;4918854;28;45478;-66
2021/06/24 04:06:33;;;;;;;;;9.00;8.00;;;;;16.52;100.00;101823.34;4921999;28;45397;-66
2021/06/24 04:08:58;;;;;;;;;6.00;5.00;;;;;16.50;100.00;101825.16;4922238;28;45329;-69
2021/06/24 04:11:23;;;;;;;;;7.50;6.75;;;;;16.49;100.00;101823.41;4921494;28;46864;-66
2021/06/24 04:13:49;;;;;;;;;8.00;7.00;;;;;16.50;100.00;101841.81;4921427;28;45378;-67
2021/06/24 04:19:36;;;;;;;;;7.00;7.00;;;;;16.48;100.00;101845.41;4923722;28;45554;-66
2021/06/24 04:22:02;;;;;;;;;6.00;6.00;;;;;16.44;100.00;101841.09;4921349;28;46743;-66
2021/06/24 04:24:27;;;;;;;;;6.00;6.00;;;;;16.41;100.00;101831.50;4921225;28;45435;-67
2021/06/24 04:26:52;;;;;;;;;6.75;5.50;;;;;16.40;100.00;101828.88;4921850;28;45496;-67
2021/06/24 04:29:18;;;;;;;;;6.75;6.25;;;;;16.46;100.00;101842.78;4921826;28;45437;-68
2021/06/24 04:31:43;;;;;;;;;7.25;7.00;;;;;16.49;100.00;101853.28;4921490;28;45332;-66
2021/06/24 04:34:09;;;;;;;;;9.00;7.75;;;;;16.37;100.00;101827.19;4920871;28;45367;-67
2021/06/24 04:36:34;;;;;;;;;8.50;7.00;;;;;16.47;100.00;101849.81;4921046;28;45448;-65
2021/06/24 04:38:59;;;;;;;;;6.50;6.50;;;;;16.39;100.00;101837.69;4920236;28;45391;-66
2021/06/24 04:41:25;;;;;;;;;7.75;7.00;;;;;16.45;100.00;101858.66;4921240;28;45298;-67
2021/06/24 04:43:51;;;;;;;;;7.75;7.75;;;;;16.19;100.00;101812.63;4921213;28;45306;-69
2021/06/24 04:49:38;;;;;;;;;9.00;7.00;;;;;16.24;100.00;101829.19;4921141;28;45346;-67
2021/06/24 04:52:03;;;;;;;;;8.75;8.00;;;;;16.29;100.00;101841.41;4920998;28;45384;-66
2021/06/24 04:54:29;;;;;;;;;7.25;6.25;;;;;16.31;100.00;101839.63;4920086;28;45396;-66
2021/06/24 04:56:54;;;;;;;;;6.00;6.00;;;;;16.35;100.00;101855.34;4920444;28;45504;-68
2021/06/24 04:59:20;;;;;;;;;7.75;7.00;;;;;16.38;100.00;101862.31;4918737;28;45489;-67
2021/06/24 05:05:08;;;;;;;;;8.00;7.00;;;;;16.32;100.00;101847.50;4919989;28;45605;-68
2021/06/24 05:07:37;;;;;;;;;8.00;6.75;;;;;16.34;100.00;101850.97;4920295;28;45319;-66
2021/06/24 05:10:05;;;;;;;;;8.00;7.00;;;;;16.43;100.00;101863.09;4919968;28;45330;-66
2021/06/24 05:12:30;;;;;;;;;8.00;8.00;;;;;16.32;100.00;101846.63;4920250;28;45545;-67
2021/06/24 05:14:55;;;;;;;;;7.75;7.75;;;;;16.40;100.00;101860.53;4919423;28;45432;-67
2021/06/24 05:17:21;;;;;;;;;8.25;7.50;;;;;16.35;100.00;101860.63;4920000;28;45471;-66
2021/06/24 05:19:50;;;;;;;;;8.25;7.00;;;;;16.32;100.00;101863.31;4920493;28;45347;-70
2021/06/24 05:22:16;;;;;;;;;7.25;6.00;;;;;16.30;100.00;101841.41;4920058;28;47163;-66
2021/06/24 05:24:41;;;;;;;;;28.75;20.75;;;;;16.35;100.00;101859.75;4919953;28;45334;-65
2021/06/24 05:27:08;;;;;;;;;8.00;8.00;;;;;16.39;100.00;101864.06;4920103;28;45373;-65
2021/06/24 05:29:33;;;;;;;;;7.75;6.25;;;;;16.32;100.00;101849.28;4919985;28;45485;-65
2021/06/24 05:31:59;;;;;;;;;7.00;7.00;;;;;16.29;100.00;101847.53;4919665;28;45600;-65
2021/06/24 05:34:24;;;;;;;;;9.00;7.00;;;;;16.37;100.00;101856.19;4934353;28;45437;-65
2021/06/24 05:36:50;;;;;;;;;7.25;7.25;;;;;16.19;100.00;101817.88;4918917;28;45454;-66
2021/06/24 05:39:15;;;;;;;;;8.75;7.75;;;;;16.30;100.00;101832.63;4920830;28;45465;-67
2021/06/24 05:41:40;;;;;;;;;5.50;5.50;;;;;16.26;100.00;101823.03;4919757;28;46163;-65
2021/06/24 05:44:06;;;;;;;;;8.00;7.00;;;;;16.44;100.00;101860.41;4919801;28;45453;-66
2021/06/24 05:49:53;;;;;;;;;7.00;7.00;;;;;16.35;100.00;101851.84;4919561;28;45420;-65
2021/06/24 05:52:18;;;;;;;;;8.50;7.50;;;;;16.36;100.00;101859.72;4919195;28;45391;-67
2021/06/24 05:54:44;;;;;;;;;8.00;7.75;;;;;16.29;100.00;101852.81;4919293;28;45348;-67
2021/06/24 05:57:09;;;;;;;;;8.00;5.00;;;;;16.27;100.00;101844.06;4919789;28;45408;-66
2021/06/24 05:59:34;;;;;;;;;8.75;7.25;;;;;16.21;100.00;101828.38;4919983;28;45575;-67
2021/06/24 06:05:21;;;;;;;;;7.75;7.00;;;;;16.33;100.00;101849.25;4919389;28;45695;-67
2021/06/24 06:07:47;;;;;;;;;7.50;7.50;;;;;16.35;100.00;101865.88;4920053;28;45308;-66
2021/06/24 06:10:12;;;;;;;;;8.75;7.00;;;;;16.38;100.00;101870.22;4920198;28;45345;-67
2021/06/24 06:12:38;;;;;;;;;8.75;7.25;;;;;16.37;100.00;101868.50;4919770;28;46032;-67
2021/06/24 06:15:04;;;;;;;;;8.00;8.00;;;;;16.41;100.00;101875.44;4919308;28;45471;-68
2021/06/24 06:17:30;;;;;;;;;9.50;8.75;;;;;16.38;100.00;101871.09;4917829;28;45414;-67
2021/06/24 06:19:55;;;;;;;;;8.00;7.00;;;;;16.45;100.00;101871.81;4919685;28;45411;-67
2021/06/24 06:22:20;;;;;;;;;7.00;7.00;;;;;16.48;100.00;101874.41;4919259;28;46544;-67
2021/06/24 06:24:46;;;;;;;;;7.00;6.75;;;;;16.59;100.00;101876.84;4918191;28;45421;-67
2021/06/24 06:27:11;;;;;;;;;8.50;8.50;;;;;16.56;100.00;101875.13;4918843;28;45405;-67
2021/06/24 06:29:36;;;;;;;;;8.50;8.50;;;;;16.62;100.00;101882.91;4919664;28;45466;-68
2021/06/24 06:35:24;;;;;;;;;16.50;14.00;;;;;16.69;100.00;101889.81;4919467;28;45530;-68
2021/06/24 06:37:49;;;;;;;;;9.00;7.75;;;;;16.71;100.00;101885.38;4919252;28;45493;-68
2021/06/24 06:40:15;;;;;;;;;8.00;7.00;;;;;16.75;100.00;101889.69;4919368;28;45594;-68
2021/06/24 06:42:41;;;;;;;;;6.75;6.25;;;;;16.67;100.00;101873.16;4918678;28;47031;-67
2021/06/24 06:45:08;;;;;;;;;7.25;7.00;;;;;16.76;100.00;101888.81;4919361;28;45669;-67
2021/06/24 06:47:33;;;;;;;;;9.00;8.00;;;;;16.76;100.00;101885.28;4919117;28;45414;-67
2021/06/24 06:49:59;;;;;;;;;10.50;8.50;;;;;16.80;100.00;101892.22;4919621;28;45347;-67
2021/06/24 06:52:24;;;;;;;;;8.00;8.00;;;;;16.63;100.00;101860.03;4919285;28;46458;-68
2021/06/24 06:54:50;;;;;;;;;7.75;7.00;;;;;16.68;100.00;101874.88;4918991;28;45349;-67
2021/06/24 06:57:15;;;;;;;;;10.25;8.00;;;;;16.87;100.00;101898.22;4918977;28;45345;-70
2021/06/24 06:59:41;;;;;;;;;9.00;7.75;;;;;16.70;100.00;101862.53;4919126;28;45376;-67
2021/06/24 07:05:28;;;;;;;;;8.25;8.00;;;;;16.90;100.00;101888.47;4918835;28;45690;-68
2021/06/24 07:07:54;;;;;;;;;8.00;7.00;;;;;16.93;100.00;101891.03;4919392;28;45534;-68
2021/06/24 07:10:22;;;;;;;;;7.25;7.25;;;;;16.95;100.00;101897.16;4918924;28;45279;-67
2021/06/24 07:12:48;;;;;;;;;8.00;7.00;;;;;16.94;100.00;101891.91;4918430;28;45788;-68
2021/06/24 07:15:14;;;;;;;;;8.00;7.00;;;;;16.96;100.00;101896.25;4918755;28;45449;-68
2021/06/24 07:17:40;;;;;;;;;8.75;8.25;;;;;16.93;100.00;101884.91;4918450;28;45440;-68
2021/06/24 07:20:06;;;;;;;;;8.00;8.00;;;;;16.95;100.00;101886.59;4918998;28;45387;-67
2021/06/24 07:22:32;;;;;;;;;8.00;7.00;;;;;17.02;100.00;101893.50;4918592;28;48003;-69
2021/06/24 07:24:57;;;;;;;;;7.00;6.50;;;;;17.06;100.00;101895.16;4918383;28;45388;-68
2021/06/24 07:27:23;;;;;;;;;7.00;7.00;;;;;16.98;100.00;101872.50;4918710;28;45337;-67
2021/06/24 07:29:48;;;;;;;;;7.00;7.00;;;;;17.02;100.00;101877.66;4918911;28;45400;-68
2021/06/24 07:32:14;;;;;;;;;8.50;8.50;;;;;17.07;100.00;101881.06;4918092;28;46203;-67
2021/06/24 07:34:39;;;;;;;;;8.50;8.00;;;;;17.06;100.00;101873.19;4918734;28;45313;-66
2021/06/24 07:37:04;;;;;;;;;6.00;6.00;;;;;17.25;100.00;101900.03;4916998;28;45361;-67
2021/06/24 07:39:30;;;;;;;;;8.50;8.50;;;;;17.10;100.00;101875.72;4920594;28;45325;-67
2021/06/24 07:41:56;;;;;;;;;5.25;5.25;;;;;17.21;100.00;101893.94;4921757;28;45311;-66
2021/06/24 07:44:21;;;;;;;;;8.50;8.00;;;;;17.23;100.00;101897.41;4920373;28;45731;-68
2021/06/24 07:46:47;;;;;;;;;7.25;7.00;;;;;17.29;100.00;101893.75;4921581;28;45435;-67
2021/06/24 07:49:12;;;;;;;;;7.00;7.00;;;;;17.29;100.00;101899.91;4922302;28;45392;-68
2021/06/24 07:51:38;;;;;;;;;7.25;7.25;;;;;17.34;100.00;101902.44;4921298;28;46215;-66
2021/06/24 07:54:06;;;;;;;;;8.00;7.50;;;;;17.36;100.00;101895.34;4919978;28;45878;-68
2021/06/24 07:56:31;;;;;;;;;7.25;7.25;;;;;17.42;100.00;101901.34;4921542;28;45391;-68
2021/06/24 07:58:57;;;;;;;;;8.00;7.25;;;;;17.44;100.00;101904.84;4921887;28;45367;-67
2021/06/24 08:01:24;;;;;;;;;7.25;6.75;;;;;17.48;100.00;101905.63;4920940;28;47518;-68
2021/06/24 08:03:51;;;;;;;;;6.50;6.00;;;;;17.47;100.00;101890.69;4921443;28;45260;-67
2021/06/24 08:06:20;;;;;;;;;6.00;6.00;;;;;17.55;100.00;101899.28;4920561;28;45358;-68
2021/06/24 08:08:45;;;;;;;;;10.00;8.00;;;;;17.53;100.00;101885.25;4921063;28;45683;-67
2021/06/24 08:11:11;;;;;;;;;9.50;8.75;;;;;17.61;100.00;101892.97;4921370;28;46272;-66
2021/06/24 08:13:36;;;;;;;;;10.00;8.25;;;;;17.65;100.00;101890.22;4921381;28;45467;-68
2021/06/24 08:16:02;;;;;;;;;7.50;6.75;;;;;17.79;100.00;101902.25;4921281;28;45457;-67
2021/06/24 08:18:29;;;;;;;;;9.25;7.25;;;;;17.82;100.00;101897.75;4921173;28;45383;-68
2021/06/24 08:20:55;;;;;;;;;7.75;7.25;;;;;17.84;100.00;101906.50;4919754;28;46319;-68
2021/06/24 08:23:20;;;;;;;;;10.00;9.75;;;;;17.94;100.00;101902.72;4921418;28;45412;-66
2021/06/24 08:25:46;;;;;;;;;10.75;6.25;;;;;17.98;100.00;101885.88;4921584;28;45273;-66
2021/06/24 08:28:12;;;;;;;;;8.50;8.00;;;;;18.00;100.00;101876.13;4921619;28;45366;-68
2021/06/24 08:30:43;;;;;;;;;9.75;8.00;;;;;18.27;100.00;101894.78;4921093;28;47273;-68
2021/06/24 08:33:08;;;;;;;;;9.00;8.00;;;;;18.35;100.00;101887.53;4921075;28;45413;-67
2021/06/24 08:35:34;;;;;;;;;9.75;8.25;;;;;18.42;100.00;101880.28;4921288;28;45534;-66
2021/06/24 08:37:59;;;;;;;;;8.50;7.50;;;;;18.73;100.00;101910.22;4921278;28;45349;-66
2021/06/24 08:40:25;;;;;;;;;8.75;8.75;;;;;18.79;100.00;101909.22;4919558;28;46142;-67
2021/06/24 08:42:51;;;;;;;;;10.75;9.75;;;;;18.90;100.00;101918.53;4921188;28;45401;-67
2021/06/24 08:45:17;;;;;;;;;9.50;9.25;;;;;18.98;100.00;101905.94;4921255;28;45528;-66
2021/06/24 08:51:08;;;;;;;;;9.00;8.75;;;;;19.24;100.00;101918.41;4920516;28;45317;-68
2021/06/24 08:53:34;;;;;;;;;8.50;8.50;;;;;19.37;100.00;101912.69;4920682;28;45577;-68
2021/06/24 08:55:59;;;;;;;;;7.75;6.75;;;;;19.40;100.00;101881.66;4921117;28;45445;-68
2021/06/24 08:58:25;;;;;;;;;6.00;6.00;;;;;19.61;100.00;101889.88;4920804;28;45456;-67
2021/06/24 09:00:53;;;;;;;;;10.50;9.00;;;;;19.81;100.00;101901.53;4920701;28;46074;-68
2021/06/24 09:03:28;;;;;;;;;9.75;7.25;;;;;19.97;100.00;101909.81;4920376;28;45573;-66
2021/06/24 09:05:59;;;;;;;;;8.25;8.25;;;;;20.14;100.00;101895.94;4920625;28;45388;-68
2021/06/24 09:08:53;;;;;;;;;10.00;9.00;;;;;20.31;100.00;101903.31;4920554;28;45323;-68
2021/06/24 09:11:22;;;;;;;;;9.00;7.00;;;;;20.43;100.00;101897.59;4919128;28;47391;-68
2021/06/24 09:14:15;;;;;;;;;6.50;6.50;;;;;20.60;100.00;101905.81;4919016;28;45362;-67
2021/06/24 09:16:43;;;;;;;;;7.00;7.00;;;;;20.58;100.00;101883.75;4920808;28;45371;-68
2021/06/24 09:19:22;;;;;;;;;8.50;7.00;;;;;20.84;100.00;101905.81;4920987;28;45371;-67
2021/06/24 09:22:02;;;;;;;;;8.25;8.00;;;;;20.87;100.00;101909.22;4920835;28;46457;-69
2021/06/24 09:24:35;;;;;;;;;8.50;8.50;;;;;20.90;100.00;101911.75;4920472;28;45584;-73
2021/06/24 09:27:17;;;;;;;;;10.00;7.50;;;;;20.91;100.00;101894.88;4920533;28;45420;-67
2021/06/24 09:29:47;;;;;;;;;9.75;8.00;;;;;21.01;100.00;101898.03;4919639;28;45405;-69
2021/06/24 09:32:28;;;;;;;;;8.50;7.50;;;;;21.18;100.00;101905.34;4920865;28;45706;-67
2021/06/24 09:34:54;;;;;;;;;9.00;9.00;;;;;21.30;100.00;101908.41;4919083;28;45655;-68
2021/06/24 09:37:19;;;;;;;;;10.25;9.00;;;;;21.40;100.00;101900.94;4919064;28;45504;-67
2021/06/24 09:39:47;;;;;;;;;9.25;7.50;;;;;21.50;100.00;101891.66;4920849;28;45349;-68
2021/06/24 09:42:14;;;;;;;;;9.25;9.00;;;;;21.67;100.00;101902.44;4920382;28;46263;-67
2021/06/24 09:44:46;;;;;;;;;9.00;8.25;;;;;21.74;100.00;101911.03;4918937;28;45331;-69
2021/06/24 09:47:17;;;;;;;;;8.00;7.75;;;;;21.74;100.00;101913.69;4919002;28;45651;-68
2021/06/24 09:49:54;;;;;;;;;8.75;8.75;;;;;21.68;100.00;101912.13;4920431;28;45375;-68
2021/06/24 09:52:19;;;;;;;;;9.00;8.00;;;;;21.51;100.00;101896.06;4920374;28;46413;-68
2021/06/24 09:54:47;;;;;;;;;8.00;8.00;;;;;21.50;100.00;101915.59;4920264;28;45332;-68
2021/06/24 09:57:24;;;;;;;;;8.00;8.00;;;;;21.48;100.00;101927.19;4920127;28;45373;-68
2021/06/24 09:59:50;;;;;;;;;8.25;7.25;;;;;21.40;100.00;101923.06;4920111;28;45258;-67
2021/06/24 10:02:16;;;;;;;;;8.50;7.75;;;;;21.13;100.00;101889.59;4918973;28;46097;-67
2021/06/24 10:04:43;;;;;;;;;11.50;10.00;;;;;21.34;100.00;101925.09;4920120;28;45377;-68
2021/06/24 10:07:27;;;;;;;;;9.25;8.00;;;;;21.28;100.00;101922.69;4920035;28;45375;-68
2021/06/24 10:09:52;;;;;;;;;10.00;9.00;;;;;21.20;100.00;101908.81;4920115;28;45372;-68
2021/06/24 10:12:19;;;;;;;;;8.00;7.00;;;;;21.30;100.00;101937.66;4920177;28;46012;-70
2021/06/24 10:14:47;;;;;;;;;10.00;7.00;;;;;21.24;100.00;101921.94;4919525;28;45574;-68
2021/06/24 10:17:13;;;;;;;;;7.75;7.75;;;;;21.30;100.00;101924.38;4920120;28;45595;-67
2021/06/24 10:19:41;;;;;;;;;7.00;6.25;;;;;21.40;100.00;101924.84;4919938;28;45416;-71
2021/06/24 10:22:19;;;;;;;;;9.25;6.75;;;;;21.45;100.00;101925.50;4919891;28;45437;-68
2021/06/24 10:25:12;;;;;;;;;7.75;6.25;;;;;21.50;100.00;101927.97;4919972;28;45324;-68
2021/06/24 10:27:40;;;;;;;;;8.25;7.75;;;;;21.51;100.00;101924.44;4902745;28;45354;-68
2021/06/24 10:30:14;;;;;;;;;8.50;8.25;;;;;21.63;100.00;101935.41;4920395;28;45364;-69
2021/06/24 10:32:45;;;;;;;;;9.50;9.50;;;;;21.76;100.00;101926.94;4919684;28;45501;-67
2021/06/24 10:35:25;;;;;;;;;7.50;7.25;;;;;21.94;100.00;101927.00;4919492;28;45336;-68
2021/06/24 10:37:52;;;;;;;;;6.75;6.50;;;;;22.13;100.00;101920.91;4934379;28;45445;-68
2021/06/24 10:40:25;;;;;;;;;8.25;8.00;;;;;22.30;100.00;101907.75;4920108;28;45405;-67
2021/06/24 10:42:53;;;;;;;;;9.00;7.00;;;;;22.72;100.00;101934.22;4919598;28;45553;-69
2021/06/24 10:45:23;;;;;;;;;7.00;6.50;;;;;22.99;100.00;101910.78;4919125;28;45516;-68
2021/06/24 10:47:54;;;;;;;;;6.00;5.00;;;;;23.46;100.00;101905.81;4919449;28;45388;-72
2021/06/24 10:50:32;;;;;;;;;8.00;6.75;;;;;23.97;100.00;101920.16;4919507;28;45308;-67
2021/06/24 10:53:03;;;;;;;;;9.00;8.00;;;;;24.53;100.00;101908.34;4919415;28;45524;-68
2021/06/24 10:55:32;;;;;;;;;9.00;8.50;;;;;25.09;100.00;101903.50;4919365;28;45610;-68
2021/06/24 10:57:58;;;;;;;;;7.25;7.25;;;;;25.48;100.00;101886.97;4919641;28;45715;-68
2021/06/24 11:00:43;;;;;;;;;10.50;7.75;;;;;25.93;100.00;101895.00;4919397;28;45347;-68
2021/06/24 11:03:10;;;;;;;;;8.00;7.00;;;;;26.39;100.00;101884.16;4918962;28;47171;-71
2021/06/24 11:05:44;;;;;;;;;6.25;6.25;;;;;26.92;100.00;101892.44;4919498;28;45338;-69
2021/06/24 11:08:14;;;;;;;;;5.50;5.50;;;;;27.19;100.00;101876.41;4919037;28;45518;-69
2021/06/24 11:10:55;;;;;;;;;9.25;8.75;;;;;27.55;100.00;101883.81;4918043;28;45499;-68
2021/06/24 11:19:25;;;;;;;;;7.00;7.00;;;;;28.51;100.00;101877.16;4922232;28;45361;-69
2021/06/24 11:21:52;;;;;;;;;8.50;7.75;;;;;28.72;100.00;101872.06;4921072;28;45557;-68
2021/06/24 11:24:20;;;;;;;;;6.50;5.50;;;;;28.57;100.00;101866.84;4922620;28;46441;-68
2021/06/24 11:26:48;;;;;;;;;8.00;5.50;;;;;28.43;100.00;101871.47;4922494;28;45460;-70
2021/06/24 11:29:29;;;;;;;;;6.75;6.00;;;;;28.23;100.00;101865.66;4922380;28;45400;-68
2021/06/24 11:35:43;;;;;;;;;9.25;8.50;;;;;27.54;100.00;101863.31;4922156;28;45549;-70
2021/06/24 11:38:09;;;;;;;;;8.50;7.00;;;;;27.21;100.00;101872.66;4922242;28;45488;-68
2021/06/24 11:40:35;;;;;;;;;29.25;28.00;;;;;26.71;100.00;101863.41;4921839;28;45389;-68
2021/06/24 11:43:06;;;;;;;;;6.25;6.25;;;;;26.26;100.00;101885.88;4922198;28;45551;-68
2021/06/24 11:45:31;;;;;;;;;6.25;6.25;;;;;25.70;100.00;101862.53;4921842;28;46348;-68
2021/06/24 12:05:06;;;;;;;;;7.75;7.00;;;;;26.52;100.00;101877.09;4922097;28;45357;-68
2021/06/24 12:07:35;;;;;;;;;8.25;7.25;;;;;26.98;100.00;101882.19;4921326;28;45725;-68
2021/06/24 12:10:01;;;;;;;;;8.00;7.25;;;;;27.31;100.00;101854.13;4904424;28;45334;-68
2021/06/24 12:12:27;;;;;;;;;8.25;7.25;;;;;27.50;100.00;101868.03;4921704;28;45323;-68
2021/06/24 12:14:57;;;;;;;;;6.75;6.75;;;;;27.43;100.00;101862.22;4922170;28;45354;-68
2021/06/24 12:17:36;;;;;;;;;6.25;5.75;;;;;27.43;100.00;101862.22;4921155;28;46518;-68
2021/06/24 12:20:08;;;;;;;;;7.25;7.00;;;;;27.89;100.00;101869.84;4920128;28;45561;-68
2021/06/24 12:22:37;;;;;;;;;7.50;7.00;;;;;28.41;100.00;101868.03;4921461;28;45464;-68
2021/06/24 12:25:06;;;;;;;;;6.75;5.00;;;;;28.99;100.00;101847.72;4920850;28;45432;-68
2021/06/24 12:27:34;;;;;;;;;16.00;14.00;;;;;29.63;100.00;101849.09;4921416;28;46465;-68
2021/06/24 12:30:10;;;;;;;;;6.00;6.00;;;;;29.66;100.00;101848.03;4921503;28;45245;-68
2021/06/24 12:32:36;;;;;;;;;7.50;7.25;;;;;29.09;100.00;101857.66;4921521;28;45322;-68
2021/06/24 12:35:02;;;;;;;;;5.00;5.00;;;;;28.26;100.00;101843.97;4921757;28;45362;-68
2021/06/24 12:37:42;;;;;;;;;6.25;4.75;;;;;27.54;100.00;101856.13;4921094;28;45549;-68